createdAt,value
2018-09-17T00:00:05.094Z,11.25
2018-09-17T00:02:33.286Z,11.15
2018-09-17T00:05:01.381Z,11.16
2018-09-17T00:07:29.308Z,11.15
2018-09-17T00:09:57.733Z,11.14
2018-09-17T00:12:25.732Z,11.18
2018-09-17T00:14:53.873Z,11.11
2018-09-17T00:17:21.965Z,11.23
2018-09-17T00:19:50.037Z,11.31
2018-09-17T00:22:17.957Z,11.32
2018-09-17T00:24:46.016Z,11.36
2018-09-17T00:27:15.685Z,11.33
2018-09-17T00:29:44.921Z,11.31
2018-09-17T00:32:13.285Z,11.20
2018-09-17T00:34:41.337Z,11.04
2018-09-17T00:37:09.343Z,10.96
2018-09-17T00:39:37.673Z,10.94
2018-09-17T00:42:05.692Z,10.96
2018-09-17T00:44:34.082Z,10.99
2018-09-17T00:47:03.147Z,10.90
2018-09-17T00:49:31.270Z,10.78
2018-09-17T00:51:59.225Z,10.84
2018-09-17T00:54:28.426Z,10.87
2018-09-17T00:56:56.529Z,10.80
2018-09-17T00:59:24.935Z,10.93
2018-09-17T01:01:52.891Z,10.83
2018-09-17T01:04:20.881Z,10.87
2018-09-17T01:06:48.929Z,10.79
2018-09-17T01:09:22.381Z,10.79
2018-09-17T01:11:50.476Z,10.82
2018-09-17T01:14:18.488Z,10.77
2018-09-17T01:16:46.596Z,10.63
2018-09-17T01:19:14.770Z,10.66
2018-09-17T01:21:42.927Z,10.65
2018-09-17T01:24:10.900Z,10.66
2018-09-17T01:26:39.040Z,10.71
2018-09-17T01:29:07.025Z,10.67
2018-09-17T01:31:35.390Z,10.58
2018-09-17T01:34:03.369Z,10.46
2018-09-17T01:36:31.500Z,10.34
2018-09-17T01:38:59.648Z,10.30
2018-09-17T01:41:27.913Z,10.36
2018-09-17T01:43:55.848Z,10.40
2018-09-17T01:46:23.937Z,10.33
2018-09-17T01:48:52.679Z,10.36
2018-09-17T01:51:20.828Z,10.36
2018-09-17T01:53:48.842Z,10.46
2018-09-17T01:56:16.904Z,10.33
2018-09-17T01:58:44.960Z,10.23
2018-09-17T02:01:13.089Z,10.11
2018-09-17T02:03:41.175Z,10.23
2018-09-17T02:06:09.521Z,10.34
2018-09-17T02:08:37.717Z,10.44
2018-09-17T02:11:05.765Z,10.53
2018-09-17T02:13:33.988Z,10.59
2018-09-17T02:16:02.104Z,10.48
2018-09-17T02:18:30.085Z,10.43
2018-09-17T02:20:58.132Z,10.28
2018-09-17T02:23:26.108Z,10.24
2018-09-17T02:25:54.125Z,10.23
2018-09-17T02:28:22.175Z,10.23
2018-09-17T02:30:50.720Z,10.24
2018-09-17T02:33:18.651Z,10.19
2018-09-17T02:35:46.929Z,10.07
2018-09-17T02:38:14.865Z,9.97
2018-09-17T02:40:43.159Z,9.86
2018-09-17T02:43:11.171Z,9.87
2018-09-17T02:45:39.909Z,9.93
2018-09-17T02:48:07.936Z,9.99
2018-09-17T02:50:36.232Z,9.86
2018-09-17T02:53:04.353Z,9.85
2018-09-17T02:55:32.350Z,9.82
2018-09-17T02:58:00.525Z,9.81
2018-09-17T03:00:28.444Z,9.84
2018-09-17T03:02:56.533Z,9.82
2018-09-17T03:05:24.573Z,9.82
2018-09-17T03:07:52.810Z,9.78
2018-09-17T03:10:20.781Z,9.67
2018-09-17T03:12:51.953Z,9.65
2018-09-17T03:15:31.040Z,9.45
2018-09-17T03:17:59.054Z,9.44
2018-09-17T03:20:27.344Z,9.60
2018-09-17T03:22:55.445Z,9.71
2018-09-17T03:25:23.490Z,9.73
2018-09-17T03:27:51.471Z,9.86
2018-09-17T03:30:19.715Z,9.88
2018-09-17T03:32:47.833Z,9.87
2018-09-17T03:35:16.664Z,9.87
2018-09-17T03:37:45.001Z,9.80
2018-09-17T03:40:12.938Z,9.55
2018-09-17T03:42:40.945Z,9.65
2018-09-17T03:45:09.321Z,9.63
2018-09-17T03:47:37.376Z,9.61
2018-09-17T03:50:06.648Z,9.65
2018-09-17T03:52:34.696Z,9.47
2018-09-17T03:55:02.624Z,9.39
2018-09-17T03:57:30.705Z,9.42
2018-09-17T03:59:58.666Z,9.56
2018-09-17T04:02:26.805Z,9.65
2018-09-17T04:04:55.174Z,9.72
2018-09-17T04:07:23.288Z,9.78
2018-09-17T04:09:51.393Z,9.72
2018-09-17T04:12:19.518Z,9.76
2018-09-17T04:14:47.538Z,9.75
2018-09-17T04:17:15.520Z,9.87
2018-09-17T04:19:43.490Z,9.90
2018-09-17T04:22:11.550Z,9.88
2018-09-17T04:24:39.592Z,9.84
2018-09-17T04:27:07.835Z,9.85
2018-09-17T04:29:35.983Z,9.73
2018-09-17T04:32:04.160Z,9.73
2018-09-17T04:34:32.383Z,9.58
2018-09-17T04:37:00.818Z,9.41
2018-09-17T04:39:29.997Z,9.34
2018-09-17T04:41:58.130Z,9.51
2018-09-17T04:44:26.312Z,9.65
2018-09-17T04:46:54.508Z,9.68
2018-09-17T04:49:22.689Z,9.73
2018-09-17T04:51:50.864Z,9.78
2018-09-17T04:54:19.034Z,9.86
2018-09-17T04:56:47.427Z,9.73
2018-09-17T05:02:08.583Z,9.68
2018-09-17T05:05:09.922Z,9.66
2018-09-17T05:13:23.280Z,9.70
2018-09-17T05:15:51.327Z,9.84
2018-09-17T05:18:19.642Z,10.11
2018-09-17T05:20:47.823Z,10.64
2018-09-17T05:23:17.391Z,11.20
2018-09-17T05:25:45.670Z,11.92
2018-09-17T05:28:14.731Z,12.74
2018-09-17T05:30:43.006Z,13.32
2018-09-17T05:33:11.281Z,13.49
2018-09-17T05:35:39.462Z,13.59
2018-09-17T05:38:07.813Z,13.40
2018-09-17T05:40:35.993Z,13.03
2018-09-17T05:43:04.216Z,12.85
2018-09-17T05:45:32.363Z,12.45
2018-09-17T05:48:00.628Z,12.48
2018-09-17T05:50:28.825Z,12.48
2018-09-17T05:52:57.069Z,12.65
2018-09-17T05:55:25.315Z,12.57
2018-09-17T05:57:53.439Z,12.95
2018-09-17T06:00:21.599Z,12.95
2018-09-17T06:02:49.778Z,13.43
2018-09-17T06:05:19.231Z,13.84
2018-09-17T06:07:47.502Z,13.99
2018-09-17T06:10:17.146Z,14.31
2018-09-17T06:12:47.495Z,14.93
2018-09-17T06:15:16.396Z,15.39
2018-09-17T06:17:44.666Z,15.96
2018-09-17T06:20:12.889Z,16.58
2018-09-17T06:22:41.117Z,16.49
2018-09-17T06:25:09.600Z,16.49
2018-09-17T06:27:37.720Z,16.27
2018-09-17T06:30:06.550Z,16.50
2018-09-17T06:32:34.812Z,16.61
2018-09-17T06:35:03.379Z,16.54
2018-09-17T06:37:31.574Z,16.36
2018-09-17T06:39:59.903Z,16.76
2018-09-17T06:42:28.093Z,17.09
2018-09-17T06:44:56.228Z,17.62
2018-09-17T06:47:24.422Z,17.80
2018-09-17T06:49:52.689Z,17.87
2018-09-17T06:52:20.883Z,17.99
2018-09-17T06:54:49.055Z,18.18
2018-09-17T06:57:17.231Z,18.27
2018-09-17T06:59:45.576Z,18.27
2018-09-17T07:02:13.725Z,18.51
2018-09-17T07:04:41.945Z,18.92
2018-09-17T07:07:10.066Z,19.85
2018-09-17T07:09:38.266Z,20.51
2018-09-17T07:12:06.487Z,20.09
2018-09-17T07:14:34.649Z,20.76
2018-09-17T07:17:02.866Z,20.95
2018-09-17T07:19:31.155Z,21.06
2018-09-17T07:21:59.305Z,22.32
2018-09-17T07:24:27.523Z,23.09
2018-09-17T07:26:55.648Z,23.59
2018-09-17T07:29:24.355Z,23.83
2018-09-17T07:31:52.582Z,25.15
2018-09-17T07:34:21.385Z,26.05
2018-09-17T07:36:49.550Z,26.63
2018-09-17T07:39:17.828Z,26.91
2018-09-17T07:41:46.099Z,27.71
2018-09-17T07:44:14.343Z,27.81
2018-09-17T07:46:42.514Z,29.05
2018-09-17T07:49:10.798Z,28.81
2018-09-17T07:51:39.057Z,29.26
2018-09-17T07:54:07.176Z,29.46
2018-09-17T07:56:35.412Z,29.43
2018-09-17T07:59:03.673Z,29.96
2018-09-17T08:01:32.280Z,30.85
2018-09-17T08:04:00.440Z,31.08
2018-09-17T08:06:28.720Z,30.63
2018-09-17T08:08:56.960Z,29.84
2018-09-17T08:11:25.903Z,30.46
2018-09-17T08:13:54.062Z,29.76
2018-09-17T08:16:22.342Z,29.46
2018-09-17T08:18:50.469Z,28.25
2018-09-17T08:21:18.782Z,27.32
2018-09-17T08:23:46.987Z,26.14
2018-09-17T08:26:15.241Z,26.46
2018-09-17T08:28:43.437Z,28.21
2018-09-17T08:31:11.650Z,29.25
2018-09-17T08:33:39.943Z,28.16
2018-09-17T08:36:08.243Z,28.98
2018-09-17T08:38:37.071Z,28.99
2018-09-17T08:41:05.372Z,29.47
2018-09-17T08:43:33.530Z,29.70
2018-09-17T08:46:01.849Z,30.22
2018-09-17T08:48:30.300Z,31.26
2018-09-17T08:50:58.468Z,31.83
2018-09-17T08:53:26.568Z,31.36
2018-09-17T08:55:59.749Z,30.23
2018-09-17T08:58:34.008Z,29.08
2018-09-17T09:01:07.904Z,27.74
2018-09-17T09:03:38.256Z,27.55
2018-09-17T09:06:12.096Z,26.46
2018-09-17T09:08:41.144Z,25.76
2018-09-17T09:12:13.843Z,25.45
2018-09-17T09:14:42.063Z,24.81
2018-09-17T09:17:11.144Z,24.96
2018-09-17T09:19:39.770Z,24.72
2018-09-17T09:22:08.348Z,24.49
2018-09-17T09:24:36.619Z,24.34
2018-09-17T09:27:04.995Z,23.97
2018-09-17T09:29:33.246Z,23.81
2018-09-17T09:32:01.569Z,23.88
2018-09-17T09:34:30.490Z,23.91
2018-09-17T09:36:58.730Z,24.09
2018-09-17T09:39:26.937Z,24.04
2018-09-17T09:41:55.248Z,24.02
2018-09-17T09:44:24.560Z,23.90
2018-09-17T09:46:52.900Z,24.12
2018-09-17T09:49:21.067Z,24.24
2018-09-17T09:51:49.286Z,23.94
2018-09-17T09:54:17.486Z,23.47
2018-09-17T09:56:45.767Z,23.77
2018-09-17T09:59:13.983Z,23.90
2018-09-17T10:01:47.840Z,23.96
2018-09-17T10:04:22.039Z,23.76
2018-09-17T10:06:50.888Z,23.67
2018-09-17T10:09:24.685Z,23.92
2018-09-17T10:11:58.555Z,24.15
2018-09-17T10:14:32.447Z,24.47
2018-09-17T10:17:06.363Z,24.35
2018-09-17T10:19:34.652Z,24.54
2018-09-17T10:22:03.047Z,24.26
2018-09-17T10:24:31.827Z,24.16
2018-09-17T10:26:59.981Z,24.48
2018-09-17T10:29:28.235Z,24.18
2018-09-17T10:31:56.376Z,24.32
2018-09-17T10:34:24.785Z,24.25
2018-09-17T10:36:53.143Z,24.69
2018-09-17T10:39:21.583Z,24.87
2018-09-17T10:41:49.723Z,24.81
2018-09-17T10:44:17.931Z,24.34
2018-09-17T10:46:46.174Z,24.50
2018-09-17T10:49:14.423Z,24.78
2018-09-17T10:51:42.643Z,24.72
2018-09-17T10:54:10.863Z,25.10
2018-09-17T10:56:39.052Z,25.32
2018-09-17T10:59:07.247Z,25.91
2018-09-17T11:01:35.623Z,27.11
2018-09-17T11:04:03.851Z,27.60
2018-09-17T11:06:32.243Z,27.92
2018-09-17T11:09:00.414Z,28.50
2018-09-17T11:11:28.595Z,28.72
2018-09-17T11:13:57.115Z,28.07
2018-09-17T11:16:26.311Z,27.73
2018-09-17T11:18:54.742Z,26.83
2018-09-17T11:21:23.026Z,26.47
2018-09-17T11:23:51.384Z,25.92
2018-09-17T11:26:19.497Z,25.66
2018-09-17T11:28:47.763Z,25.98
2018-09-17T11:31:15.967Z,25.39
2018-09-17T11:33:44.495Z,25.42
2018-09-17T11:36:12.723Z,25.52
2018-09-17T11:38:41.026Z,25.52
2018-09-17T11:41:09.306Z,24.91
2018-09-17T11:43:37.551Z,25.02
2018-09-17T11:46:05.912Z,24.83
2018-09-17T11:48:34.455Z,24.82
2018-09-17T11:51:03.206Z,25.04
2018-09-17T11:53:31.858Z,25.17
2018-09-17T11:56:00.084Z,25.20
2018-09-17T11:58:28.371Z,24.74
2018-09-17T12:01:02.072Z,24.63
2018-09-17T12:03:35.703Z,24.48
2018-09-17T12:06:05.030Z,24.73
2018-09-17T12:08:33.663Z,24.88
2018-09-17T12:11:02.143Z,24.94
2018-09-17T12:13:30.223Z,24.70
2018-09-17T12:15:58.523Z,24.93
2018-09-17T12:18:27.103Z,25.03
2018-09-17T12:23:59.192Z,25.46
2018-09-17T12:26:53.264Z,25.37
2018-09-17T12:29:21.543Z,25.19
2018-09-17T12:31:50.063Z,25.03
2018-09-17T12:34:18.404Z,25.38
2018-09-17T12:36:57.487Z,25.38
2018-09-17T12:39:58.087Z,25.35
2018-09-17T12:42:28.183Z,25.24
2018-09-17T12:44:56.495Z,25.41
2018-09-17T12:47:24.964Z,25.52
2018-09-17T12:49:53.871Z,25.47
2018-09-17T12:52:22.291Z,25.49
2018-09-17T12:54:50.632Z,25.43
2018-09-17T12:57:18.927Z,25.33
2018-09-17T12:59:47.231Z,25.34
2018-09-17T13:02:15.905Z,25.45
2018-09-17T13:04:44.293Z,25.29
2018-09-17T13:07:12.672Z,25.28
2018-09-17T13:09:41.044Z,25.36
2018-09-17T13:12:09.427Z,25.33
2018-09-17T13:14:38.648Z,25.39
2018-09-17T13:17:07.065Z,25.32
2018-09-17T13:19:35.264Z,25.45
2018-09-17T13:22:03.504Z,25.65
2018-09-17T13:24:31.784Z,25.69
2018-09-17T13:27:00.164Z,25.73
2018-09-17T13:29:28.523Z,25.76
2018-09-17T13:31:57.011Z,25.86
2018-09-17T13:34:25.252Z,25.63
2018-09-17T13:36:53.727Z,25.61
2018-09-17T13:39:23.132Z,25.64
2018-09-17T13:41:51.563Z,25.49
2018-09-17T13:44:19.893Z,25.52
2018-09-17T13:46:48.212Z,25.63
2018-09-17T13:49:23.182Z,25.66
2018-09-17T13:51:51.581Z,25.75
2018-09-17T13:54:19.912Z,25.61
2018-09-17T13:56:48.277Z,25.67
2018-09-17T13:59:16.485Z,25.58
2018-09-17T14:01:44.879Z,25.52
2018-09-17T14:04:13.209Z,25.64
2018-09-17T14:06:43.033Z,25.73
2018-09-17T14:09:12.588Z,25.75
2018-09-17T14:11:41.871Z,25.56
2018-09-17T14:14:10.274Z,25.41
2018-09-17T14:16:38.525Z,25.40
2018-09-17T14:19:06.823Z,25.52
2018-09-17T14:21:34.939Z,25.39
2018-09-17T14:24:03.143Z,25.49
2018-09-17T14:26:31.444Z,25.46
2018-09-17T14:28:59.569Z,25.48
2018-09-17T14:31:33.197Z,25.48
2018-09-17T14:34:01.392Z,25.53
2018-09-17T14:36:29.583Z,25.52
2018-09-17T14:38:57.729Z,25.47
2018-09-17T14:41:26.012Z,25.50
2018-09-17T14:43:54.315Z,25.51
2018-09-17T14:46:22.472Z,25.54
2018-09-17T14:48:50.600Z,25.57
2018-09-17T14:51:18.931Z,25.50
2018-09-17T14:53:47.032Z,25.51
2018-09-17T14:56:15.163Z,25.43
2018-09-17T14:58:44.063Z,25.45
2018-09-17T15:01:12.169Z,25.34
2018-09-17T15:03:40.403Z,25.36
2018-09-17T15:06:08.543Z,25.36
2018-09-17T15:08:36.900Z,25.24
2018-09-17T15:11:05.016Z,25.34
2018-09-17T15:13:33.151Z,25.20
2018-09-17T15:16:01.391Z,25.41
2018-09-17T15:18:29.588Z,25.35
2018-09-17T15:20:57.743Z,25.31
2018-09-17T15:23:25.845Z,25.31
2018-09-17T15:25:54.064Z,25.16
2018-09-17T15:28:24.795Z,25.01
2018-09-17T15:30:54.316Z,24.99
2018-09-17T15:33:22.552Z,25.00
2018-09-17T15:35:50.761Z,25.08
2018-09-17T15:38:19.079Z,25.03
2018-09-17T15:40:47.727Z,25.03
2018-09-17T15:43:15.880Z,24.95
2018-09-17T15:45:43.991Z,24.80
2018-09-17T15:48:12.763Z,24.64
2018-09-17T15:50:40.981Z,24.58
2018-09-17T15:53:09.271Z,24.48
2018-09-17T15:55:37.423Z,24.38
2018-09-17T15:58:05.923Z,24.36
2018-09-17T16:00:34.132Z,24.30
2018-09-17T16:03:02.507Z,24.19
2018-09-17T16:05:30.903Z,24.09
2018-09-17T16:07:59.012Z,23.91
2018-09-17T16:10:27.352Z,23.86
2018-09-17T16:12:55.531Z,23.84
2018-09-17T16:15:23.712Z,23.76
2018-09-17T16:17:51.904Z,23.54
2018-09-17T16:20:19.971Z,23.41
2018-09-17T16:22:48.524Z,23.28
2018-09-17T16:25:16.851Z,23.09
2018-09-17T16:27:45.453Z,22.95
2018-09-17T16:30:13.752Z,22.85
2018-09-17T16:32:41.985Z,22.77
2018-09-17T16:35:10.357Z,22.67
2018-09-17T16:37:38.639Z,22.48
2018-09-17T16:40:07.321Z,22.34
2018-09-17T16:42:35.403Z,22.24
2018-09-17T16:45:03.527Z,22.03
2018-09-17T16:47:31.563Z,22.01
2018-09-17T16:49:59.753Z,21.95
2018-09-17T16:52:27.905Z,21.81
2018-09-17T16:54:56.143Z,21.83
2018-09-17T16:57:24.264Z,21.73
2018-09-17T16:59:52.595Z,21.61
2018-09-17T17:02:20.924Z,21.52
2018-09-17T17:04:49.127Z,21.40
2018-09-17T17:07:17.119Z,21.26
2018-09-17T17:09:45.199Z,21.12
2018-09-17T17:12:13.265Z,21.00
2018-09-17T17:14:41.415Z,20.88
2018-09-17T17:17:09.705Z,20.74
2018-09-17T17:19:37.972Z,20.63
2018-09-17T17:22:06.009Z,20.46
2018-09-17T17:24:34.864Z,20.23
2018-09-17T17:27:03.328Z,20.01
2018-09-17T17:29:32.096Z,19.90
2018-09-17T17:32:00.821Z,19.78
2018-09-17T17:34:29.540Z,19.72
2018-09-17T17:36:58.414Z,19.61
2018-09-17T17:39:27.098Z,19.51
2018-09-17T17:41:57.022Z,19.41
2018-09-17T17:44:29.803Z,19.23
2018-09-17T17:47:05.671Z,19.14
2018-09-17T17:49:35.829Z,18.99
2018-09-17T17:52:05.820Z,18.85
2018-09-17T17:54:34.530Z,18.84
2018-09-17T17:57:03.142Z,18.77
2018-09-17T17:59:33.815Z,18.64
2018-09-17T18:02:02.674Z,18.58
2018-09-17T18:04:47.539Z,18.49
2018-09-17T18:07:17.853Z,18.36
2018-09-17T18:09:46.682Z,18.28
2018-09-17T18:12:23.965Z,18.13
2018-09-17T18:14:54.204Z,18.12
2018-09-17T18:17:30.007Z,18.02
2018-09-17T18:22:52.545Z,17.75
2018-09-17T18:25:21.498Z,17.64
2018-09-17T18:35:12.441Z,17.14
2018-09-17T18:37:41.396Z,17.19
2018-09-17T18:40:11.415Z,17.24
2018-09-17T18:42:41.143Z,17.33
2018-09-17T18:45:09.895Z,17.15
2018-09-17T18:47:39.345Z,17.20
2018-09-17T18:50:19.769Z,17.25
2018-09-17T18:52:48.874Z,17.30
2018-09-17T18:55:17.827Z,17.11
2018-09-17T18:57:47.185Z,16.95
2018-09-17T19:00:17.383Z,16.99
2018-09-17T19:02:49.885Z,16.91
2018-09-17T19:05:20.075Z,16.78
2018-09-17T19:07:48.862Z,16.72
2018-09-17T19:10:19.403Z,16.65
2018-09-17T19:12:50.012Z,16.58
2018-09-17T19:15:24.659Z,16.42
2018-09-17T19:17:53.734Z,16.26
2018-09-17T19:20:23.352Z,16.26
2018-09-17T19:22:57.343Z,16.20
2018-09-17T19:25:27.311Z,16.19
2018-09-17T19:28:01.327Z,16.18
2018-09-17T19:30:30.373Z,15.97
2018-09-17T19:33:01.641Z,15.96
2018-09-17T19:35:31.883Z,15.91
2018-09-17T19:44:58.364Z,15.59
2018-09-17T20:15:30.820Z,15.26
2018-09-17T20:18:07.788Z,15.17
2018-09-17T20:24:00.549Z,15.02
2018-09-17T20:27:50.668Z,14.97
2018-09-17T20:32:41.763Z,14.86
2018-09-17T20:35:11.411Z,14.86
2018-09-17T20:37:40.285Z,14.68
2018-09-17T20:40:08.813Z,14.71
2018-09-17T20:42:37.590Z,14.56
2018-09-17T20:45:06.154Z,14.58
2018-09-17T20:47:34.751Z,14.51
2018-09-17T20:50:03.782Z,14.44
2018-09-17T20:52:32.582Z,14.36
2018-09-17T20:55:01.365Z,14.32
2018-09-17T20:57:29.906Z,14.39
2018-09-17T21:00:00.473Z,14.33
2018-09-17T21:02:30.034Z,14.32
2018-09-17T21:04:58.602Z,14.29
2018-09-17T21:07:27.322Z,14.24
2018-09-17T21:09:56.104Z,14.28
2018-09-17T21:12:32.227Z,14.14
2018-09-17T21:15:00.844Z,14.10
2018-09-17T21:17:29.376Z,14.13
2018-09-17T21:19:57.829Z,14.08
2018-09-17T21:22:26.549Z,14.03
2018-09-17T21:24:55.141Z,13.94
2018-09-17T21:27:23.648Z,13.99
2018-09-17T21:29:52.140Z,13.89
2018-09-17T21:32:22.233Z,13.91
2018-09-17T21:34:50.683Z,13.79
2018-09-17T21:37:19.247Z,13.80
2018-09-17T21:39:47.636Z,13.77
2018-09-17T21:42:16.042Z,13.75
2018-09-17T21:44:44.294Z,13.74
2018-09-17T21:47:12.274Z,13.66
2018-09-17T21:49:40.571Z,13.60
2018-09-17T21:52:08.593Z,13.60
2018-09-17T21:54:36.825Z,13.64
2018-09-17T21:57:04.980Z,13.67
2018-09-17T21:59:34.317Z,13.77
2018-09-17T22:02:02.596Z,13.73
2018-09-17T22:04:30.624Z,13.85
2018-09-17T22:06:58.702Z,13.83
2018-09-17T22:09:26.769Z,13.77
2018-09-17T22:11:55.007Z,13.67
2018-09-17T22:14:23.017Z,13.59
2018-09-17T22:16:51.022Z,13.52
2018-09-17T22:19:19.273Z,13.53
2018-09-17T22:21:47.237Z,13.36
2018-09-17T22:24:15.287Z,13.24
2018-09-17T22:26:43.244Z,13.08
2018-09-17T22:29:11.694Z,13.08
2018-09-17T22:31:40.052Z,13.08
2018-09-17T22:34:08.100Z,13.06
2018-09-17T22:36:36.239Z,13.06
2018-09-17T22:39:07.867Z,13.08
2018-09-17T22:41:35.966Z,13.17
2018-09-17T22:44:04.317Z,13.13
2018-09-17T22:46:32.400Z,13.15
2018-09-17T22:49:00.434Z,13.16
2018-09-17T22:51:28.397Z,13.10
2018-09-17T22:53:56.774Z,13.07
2018-09-17T22:56:24.815Z,13.08
2018-09-17T22:58:52.834Z,13.06
2018-09-17T23:01:20.941Z,13.00
2018-09-17T23:03:48.899Z,12.89
2018-09-17T23:06:16.888Z,12.86
2018-09-17T23:08:45.347Z,12.86
2018-09-17T23:11:13.378Z,12.95
2018-09-17T23:13:41.661Z,12.99
2018-09-17T23:16:10.760Z,12.92
2018-09-17T23:18:39.026Z,12.82
2018-09-17T23:21:07.281Z,12.81
2018-09-17T23:23:35.390Z,12.82
2018-09-17T23:26:03.469Z,12.80
2018-09-17T23:28:32.313Z,12.84
2018-09-17T23:31:00.488Z,12.81
2018-09-17T23:33:28.948Z,12.80
2018-09-17T23:36:00.468Z,12.74
2018-09-17T23:38:32.179Z,12.73
2018-09-17T23:41:00.404Z,12.62
2018-09-17T23:43:28.573Z,12.56
2018-09-17T23:45:56.891Z,12.56
2018-09-17T23:48:25.868Z,12.61
2018-09-17T23:50:54.080Z,12.67
2018-09-17T23:53:22.260Z,12.68
2018-09-17T23:55:50.332Z,12.69
2018-09-17T23:58:18.320Z,12.73
